Time;durP1;ratioP1;P1;durP2;ratioP2;P2;SDS_P1;SDS_P2;PMS_P1;PMS_P2;Temp;Humidity;BMP_temperature;BMP_pressure;BME280_temperature;BME280_humidity;BME280_pressure;Samples;Min_cycle;Max_cycle;Signal;HPM_P1;HPM_P2
2021/03/13 00:01:03;;;;;;;9.23;1.93;;;7.40;1.00;;;;;;5062894;28;20290;-76
2021/03/13 00:03:30;;;;;;;7.90;1.80;;;7.40;16.10;;;;;;5049270;28;20207;-77
2021/03/13 00:05:56;;;;;;;5.03;1.87;;;7.40;33.40;;;;;;5048898;28;20227;-77
2021/03/13 00:08:23;;;;;;;6.87;2.00;;;7.30;33.40;;;;;;5062652;28;20900;-78
2021/03/13 00:10:50;;;;;;;6.90;1.67;;;7.30;33.40;;;;;;5047424;28;20641;-78
2021/03/13 00:13:16;;;;;;;4.90;1.63;;;7.30;39.20;;;;;;5052486;28;20771;-77
2021/03/13 00:15:44;;;;;;;5.63;1.53;;;7.40;21.00;;;;;;5050008;28;20219;-78
2021/03/13 00:18:12;;;;;;;10.53;1.80;;;7.40;27.40;;;;;;5064008;28;20210;-77
2021/03/13 00:20:41;;;;;;;7.03;1.60;;;7.40;31.50;;;;;;5053060;28;20215;-78
2021/03/13 00:23:07;;;;;;;4.57;1.77;;;7.40;42.30;;;;;;5070716;28;20339;-76
2021/03/13 00:25:35;;;;;;;6.73;1.70;;;7.40;26.60;;;;;;5027932;28;20684;-78
2021/03/13 00:28:02;;;;;;;12.23;1.60;;;7.40;53.00;;;;;;5020765;28;20276;-78
2021/03/13 00:30:39;;;;;;;5.67;1.37;;;7.30;80.30;;;;;;5049799;28;20222;-79
2021/03/13 00:33:12;;;;;;;6.83;1.60;;;7.30;99.90;;;;;;5034996;28;20218;-78
2021/03/13 00:35:40;;;;;;;12.53;1.70;;;7.30;99.90;;;;;;5053203;28;20238;-77
2021/03/13 00:38:07;;;;;;;6.43;1.97;;;7.30;99.90;;;;;;5030683;28;20574;-78
2021/03/13 00:40:35;;;;;;;6.97;1.40;;;7.40;99.90;;;;;;5045632;28;20208;-76
2021/03/13 00:43:03;;;;;;;6.80;1.80;;;7.30;99.90;;;;;;5040895;28;20213;-77
2021/03/13 00:45:31;;;;;;;11.27;1.63;;;7.40;99.90;;;;;;5047694;28;20210;-78
2021/03/13 00:47:58;;;;;;;4.80;2.00;;;7.40;99.90;;;;;;5017018;28;20570;-76
2021/03/13 00:50:26;;;;;;;6.30;1.63;;;7.40;99.90;;;;;;5049160;28;20208;-78
2021/03/13 00:52:52;;;;;;;4.27;1.60;;;7.40;99.90;;;;;;5039808;28;20192;-78
2021/03/13 00:55:19;;;;;;;3.77;1.70;;;7.40;99.90;;;;;;5046981;28;20680;-77
2021/03/13 00:57:46;;;;;;;5.53;1.63;;;7.40;99.90;;;;;;5052544;28;20242;-78
2021/03/13 01:00:32;;;;;;;8.20;2.43;;;7.40;99.90;;;;;;5034478;28;20209;-78
2021/03/13 01:02:59;;;;;;;7.57;1.87;;;7.40;99.90;;;;;;5047297;28;20214;-78
2021/03/13 01:05:25;;;;;;;1.67;1.30;;;7.30;99.90;;;;;;5048714;28;20240;-77
2021/03/13 01:07:52;;;;;;;4.90;1.60;;;7.30;99.90;;;;;;5043410;28;20215;-77
2021/03/13 01:10:33;;;;;;;5.33;1.80;;;7.30;99.90;;;;;;5047434;28;20207;-78
2021/03/13 01:13:00;;;;;;;6.03;1.60;;;7.20;99.90;;;;;;5027058;28;20247;-77
2021/03/13 01:15:26;;;;;;;5.77;1.87;;;7.20;99.90;;;;;;5033643;28;20220;-78
2021/03/13 01:17:53;;;;;;;6.70;1.60;;;7.10;99.90;;;;;;5047715;28;20197;-78
2021/03/13 01:20:22;;;;;;;4.90;1.20;;;7.10;99.90;;;;;;5034212;28;20203;-78
2021/03/13 01:22:50;;;;;;;8.03;2.13;;;7.00;99.90;;;;;;5030424;28;20293;-78
2021/03/13 01:25:17;;;;;;;3.87;1.60;;;7.00;99.90;;;;;;5037424;28;616374;-77
2021/03/13 01:27:45;;;;;;;4.47;1.50;;;6.90;99.90;;;;;;5043187;28;20215;-78
2021/03/13 01:30:19;;;;;;;5.00;1.50;;;6.90;99.90;;;;;;5048529;28;20208;-78
2021/03/13 01:32:46;;;;;;;2.70;1.40;;;6.90;99.90;;;;;;5060065;28;20254;-77
2021/03/13 01:35:13;;;;;;;2.47;1.50;;;6.90;99.90;;;;;;5046457;28;20219;-78
2021/03/13 01:37:40;;;;;;;5.13;1.80;;;6.80;99.90;;;;;;5049244;28;20605;-77
2021/03/13 01:40:10;;;;;;;4.30;1.90;;;6.80;99.90;;;;;;5036576;28;20207;-78
2021/03/13 01:42:37;;;;;;;6.03;1.50;;;6.80;99.90;;;;;;5063890;28;20208;-78
2021/03/13 01:45:06;;;;;;;1.70;1.03;;;6.70;99.90;;;;;;5050244;28;20249;-77
2021/03/13 01:47:32;;;;;;;1.30;1.10;;;6.70;99.90;;;;;;5065250;28;20247;-79
2021/03/13 01:50:00;;;;;;;3.57;1.63;;;6.60;99.90;;;;;;5036598;28;20234;-77
2021/03/13 01:52:26;;;;;;;1.97;1.43;;;6.70;99.90;;;;;;5048190;28;20201;-78
2021/03/13 01:54:53;;;;;;;2.53;1.13;;;6.60;99.90;;;;;;5045292;28;20807;-77
2021/03/13 01:57:20;;;;;;;4.53;2.23;;;6.60;99.90;;;;;;5033484;28;20203;-77
2021/03/13 01:59:47;;;;;;;5.00;1.30;;;6.60;99.90;;;;;;5064130;28;20669;-76
2021/03/13 02:02:15;;;;;;;6.67;1.70;;;6.60;99.90;;;;;;5066439;28;20193;-78
2021/03/13 02:04:42;;;;;;;2.40;1.57;;;6.60;99.90;;;;;;5047764;28;20211;-77
2021/03/13 02:07:12;;;;;;;5.27;1.80;;;6.60;99.90;;;;;;5063131;28;20233;-77
2021/03/13 02:09:57;;;;;;;3.83;1.40;;;6.50;99.90;;;;;;5068941;28;20278;-77
2021/03/13 02:12:27;;;;;;;6.07;1.40;;;6.50;99.90;;;;;;5050849;28;20230;-78
2021/03/13 02:15:18;;;;;;;3.60;1.63;;;6.60;99.90;;;;;;5063059;28;20193;-77
2021/03/13 02:17:56;;;;;;;4.20;1.67;;;6.50;99.90;;;;;;5064761;28;20286;-77
2021/03/13 02:20:34;;;;;;;3.50;1.53;;;6.50;99.90;;;;;;5061296;28;20726;-77
2021/03/13 02:23:04;;;;;;;2.73;1.80;;;6.50;99.90;;;;;;5047919;28;20714;-76
2021/03/13 02:25:55;;;;;;;1.73;1.10;;;6.50;99.90;;;;;;5046350;28;20771;-76
2021/03/13 02:28:28;;;;;;;2.20;1.20;;;6.50;99.90;;;;;;5059295;28;20210;-76
2021/03/13 02:30:56;;;;;;;4.37;1.40;;;6.50;99.90;;;;;;5062418;28;20201;-76
2021/03/13 02:33:33;;;;;;;1.87;0.90;;;6.50;99.90;;;;;;5032292;28;20285;-78
2021/03/13 02:36:03;;;;;;;3.10;1.00;;;6.50;99.90;;;;;;5046707;28;20216;-77
2021/03/13 02:38:58;;;;;;;3.77;1.30;;;6.50;99.90;;;;;;5053698;28;20209;-77
2021/03/13 02:41:28;;;;;;;6.67;2.10;;;6.50;99.90;;;;;;5047527;28;20202;-77
2021/03/13 02:44:01;;;;;;;5.07;1.30;;;6.50;99.90;;;;;;5047060;28;20287;-77
2021/03/13 02:46:29;;;;;;;4.40;1.47;;;6.50;99.90;;;;;;5062059;28;20706;-76
2021/03/13 02:48:58;;;;;;;5.40;2.20;;;6.50;99.90;;;;;;5060196;28;20267;-76
2021/03/13 02:51:27;;;;;;;2.47;1.53;;;6.50;99.90;;;;;;5063240;28;20193;-77
2021/03/13 02:53:56;;;;;;;2.27;1.50;;;6.50;99.90;;;;;;5045383;28;20221;-76
2021/03/13 02:56:23;;;;;;;2.77;1.50;;;6.60;99.90;;;;;;5050040;28;20214;-78
2021/03/13 02:58:54;;;;;;;4.03;1.60;;;6.50;99.90;;;;;;5046507;28;20301;-77
2021/03/13 03:01:22;;;;;;;1.90;1.73;;;6.60;99.90;;;;;;5062772;28;20646;-77
2021/03/13 03:03:50;;;;;;;6.90;1.60;;;6.60;99.90;;;;;;5056299;28;20216;-78
2021/03/13 03:06:18;;;;;;;2.70;1.40;;;6.70;99.90;;;;;;5049462;28;20239;-78
2021/03/13 03:08:47;;;;;;;3.00;1.33;;;6.60;99.90;;;;;;5064838;28;20253;-79
2021/03/13 03:11:19;;;;;;;1.20;1.10;;;6.60;99.90;;;;;;5050239;28;20206;-78
2021/03/13 03:13:47;;;;;;;2.97;1.20;;;6.60;99.90;;;;;;5050654;28;20213;-78
2021/03/13 03:16:14;;;;;;;3.87;1.40;;;6.60;99.90;;;;;;5045995;28;20211;-77
2021/03/13 03:18:45;;;;;;;4.00;1.17;;;6.60;99.90;;;;;;5049459;28;20261;-78
2021/03/13 03:21:12;;;;;;;3.23;1.30;;;6.60;99.90;;;;;;5067320;28;20201;-76
2021/03/13 03:23:40;;;;;;;4.63;1.30;;;6.60;99.90;;;;;;5053822;28;20301;-78
2021/03/13 03:26:07;;;;;;;5.33;1.40;;;6.60;99.90;;;;;;5068408;28;20209;-78
2021/03/13 03:28:33;;;;;;;6.17;1.10;;;6.60;99.90;;;;;;5051124;28;20614;-77
2021/03/13 03:30:59;;;;;;;6.60;1.70;;;6.60;99.90;;;;;;5047788;28;20633;-76
2021/03/13 03:33:26;;;;;;;5.17;1.10;;;6.60;99.90;;;;;;5065342;28;20216;-78
2021/03/13 03:35:52;;;;;;;5.30;1.70;;;6.60;99.90;;;;;;5034484;28;20579;-77
2021/03/13 03:38:19;;;;;;;3.07;1.20;;;6.60;99.90;;;;;;5031955;28;20218;-76
2021/03/13 03:40:46;;;;;;;3.80;1.20;;;6.60;99.90;;;;;;5053962;28;20267;-76
2021/03/13 03:43:12;;;;;;;3.17;1.17;;;6.70;99.90;;;;;;5053498;28;20228;-77
2021/03/13 03:45:42;;;;;;;3.33;1.33;;;6.70;99.90;;;;;;5067461;28;20332;-77
2021/03/13 03:48:15;;;;;;;4.50;1.30;;;6.70;99.90;;;;;;5045812;28;20207;-77
2021/03/13 03:50:43;;;;;;;4.37;1.40;;;6.70;99.90;;;;;;5068603;28;20292;-78
2021/03/13 03:53:17;;;;;;;3.00;1.73;;;6.70;99.90;;;;;;5043446;28;20213;-78
2021/03/13 03:55:47;;;;;;;3.90;1.13;;;6.70;99.90;;;;;;5059451;28;20307;-76
2021/03/13 03:58:18;;;;;;;2.07;1.20;;;6.80;99.90;;;;;;5048576;28;20254;-77
2021/03/13 04:00:46;;;;;;;4.43;0.83;;;6.70;99.90;;;;;;5063983;28;20204;-76
2021/03/13 04:03:14;;;;;;;1.00;0.90;;;6.70;99.90;;;;;;5063244;28;20794;-77
2021/03/13 04:05:42;;;;;;;2.43;1.37;;;6.80;99.90;;;;;;5049771;28;20324;-75
2021/03/13 04:08:15;;;;;;;1.73;1.07;;;6.80;99.90;;;;;;5063846;28;20213;-77
2021/03/13 04:10:46;;;;;;;4.90;1.67;;;6.80;99.90;;;;;;5072041;28;20205;-79
2021/03/13 04:13:13;;;;;;;1.37;0.83;;;6.80;99.90;;;;;;5058279;28;20315;-79
2021/03/13 04:15:41;;;;;;;3.27;1.00;;;6.80;99.90;;;;;;5048094;28;20221;-78
2021/03/13 04:18:09;;;;;;;4.90;1.10;;;6.90;99.90;;;;;;5052765;28;20210;-79
2021/03/13 04:20:37;;;;;;;7.13;1.40;;;6.90;99.90;;;;;;5067564;28;20259;-79
2021/03/13 04:23:04;;;;;;;4.00;1.10;;;6.90;99.90;;;;;;5067475;28;20679;-79
2021/03/13 04:25:32;;;;;;;4.47;1.47;;;6.90;99.90;;;;;;5049241;28;20789;-80
2021/03/13 04:28:01;;;;;;;2.57;1.00;;;6.90;99.90;;;;;;5049551;28;20202;-78
2021/03/13 04:30:28;;;;;;;1.50;0.63;;;7.00;99.90;;;;;;5050162;28;20337;-78
2021/03/13 04:33:14;;;;;;;5.03;1.37;;;7.00;99.90;;;;;;5067724;28;20209;-79
2021/03/13 04:35:41;;;;;;;1.43;0.97;;;7.00;99.90;;;;;;5054775;28;20206;-79
2021/03/13 04:38:09;;;;;;;4.23;1.43;;;7.10;99.90;;;;;;5048789;28;20210;-80
2021/03/13 04:40:36;;;;;;;3.23;1.10;;;7.10;99.90;;;;;;5071458;28;20232;-79
2021/03/13 04:43:03;;;;;;;6.07;1.70;;;7.20;99.90;;;;;;5052113;28;20307;-79
2021/03/13 04:45:31;;;;;;;2.67;1.20;;;7.30;99.90;;;;;;5056260;28;20628;-76
2021/03/13 04:47:58;;;;;;;1.33;0.97;;;7.30;99.90;;;;;;5052243;28;20203;-77
2021/03/13 04:50:24;;;;;;;4.13;1.07;;;7.20;99.90;;;;;;5059310;28;20286;-78
2021/03/13 04:52:50;;;;;;;5.07;0.97;;;7.20;99.90;;;;;;5052719;28;20219;-78
2021/03/13 04:55:17;;;;;;;4.03;1.40;;;7.20;99.90;;;;;;5053007;28;20214;-79
2021/03/13 04:57:45;;;;;;;2.47;1.40;;;7.20;99.90;;;;;;5047947;28;20206;-79
2021/03/13 05:00:14;;;;;;;4.83;1.50;;;7.30;99.90;;;;;;5050489;28;20282;-77
2021/03/13 05:02:41;;;;;;;2.50;1.27;;;7.30;99.90;;;;;;5064880;28;20612;-78
2021/03/13 05:05:09;;;;;;;2.93;1.13;;;7.30;99.90;;;;;;5058171;28;20266;-78
2021/03/13 05:07:35;;;;;;;0.90;0.80;;;7.30;99.90;;;;;;5044842;28;20206;-77
2021/03/13 05:10:05;;;;;;;0.93;0.70;;;7.30;99.90;;;;;;5036969;28;20217;-77
2021/03/13 05:12:31;;;;;;;2.77;1.27;;;7.30;99.90;;;;;;5067381;28;20553;-79
2021/03/13 05:14:58;;;;;;;2.63;1.10;;;7.40;99.90;;;;;;5065582;28;21825;-77
2021/03/13 05:17:24;;;;;;;1.57;0.97;;;7.30;99.90;;;;;;5051346;28;20236;-77
2021/03/13 05:19:51;;;;;;;4.03;0.90;;;7.30;99.90;;;;;;5033158;28;20388;-78
2021/03/13 05:22:18;;;;;;;1.73;0.80;;;7.30;99.90;;;;;;5055534;28;20496;-78
2021/03/13 05:24:51;;;;;;;1.57;0.77;;;7.30;99.90;;;;;;5047343;28;20232;-78
2021/03/13 05:27:18;;;;;;;3.83;0.90;;;7.40;99.90;;;;;;5065416;28;20246;-77
2021/03/13 05:29:44;;;;;;;1.67;0.70;;;7.40;99.90;;;;;;5063535;28;20267;-78
2021/03/13 05:32:10;;;;;;;3.90;0.90;;;7.40;99.90;;;;;;5069035;28;22370;-77
2021/03/13 05:34:37;;;;;;;2.07;1.10;;;7.40;99.90;;;;;;5038013;28;20667;-78
2021/03/13 05:37:03;;;;;;;6.40;1.00;;;7.40;99.90;;;;;;5049769;28;20216;-78
2021/03/13 05:39:30;;;;;;;5.43;1.70;;;7.40;99.90;;;;;;5063738;28;20214;-78
2021/03/13 05:41:57;;;;;;;2.73;0.93;;;7.30;99.90;;;;;;5052356;28;20223;-78
2021/03/13 05:44:24;;;;;;;1.20;0.93;;;7.40;99.90;;;;;;5062788;28;20544;-79
2021/03/13 05:46:51;;;;;;;1.73;0.50;;;7.40;99.90;;;;;;5051598;28;20214;-79
2021/03/13 05:49:20;;;;;;;2.00;1.10;;;7.40;99.90;;;;;;5044104;28;20347;-79
2021/03/13 05:51:47;;;;;;;4.37;1.00;;;7.40;99.90;;;;;;5053886;28;20270;-80
2021/03/13 05:54:15;;;;;;;1.90;0.70;;;7.40;99.90;;;;;;5051066;28;20205;-80
2021/03/13 05:56:43;;;;;;;5.50;1.07;;;7.50;99.90;;;;;;5049672;28;20236;-80
2021/03/13 05:59:11;;;;;;;1.73;0.97;;;7.40;99.90;;;;;;5065400;28;20250;-79
2021/03/13 06:01:38;;;;;;;1.53;0.73;;;7.50;99.90;;;;;;5050208;28;20550;-77
2021/03/13 06:04:22;;;;;;;1.87;0.50;;;7.40;99.90;;;;;;5053061;28;20202;-80
2021/03/13 06:06:48;;;;;;;2.20;0.50;;;7.30;99.90;;;;;;5052990;28;20211;-80
2021/03/13 06:09:15;;;;;;;1.47;0.30;;;7.20;99.90;;;;;;5067196;28;20238;-81
2021/03/13 06:11:41;;;;;;;0.50;0.40;;;7.40;99.90;;;;;;5067518;28;20211;-80
2021/03/13 06:14:07;;;;;;;0.40;0.40;;;7.30;99.90;;;;;;5050845;28;20241;-79
2021/03/13 06:16:34;;;;;;;2.50;0.70;;;7.30;99.90;;;;;;5051863;28;20204;-80
2021/03/13 06:19:03;;;;;;;1.13;0.50;;;7.20;99.90;;;;;;5038254;28;20215;-79
2021/03/13 06:21:32;;;;;;;1.03;0.37;;;7.10;99.90;;;;;;5061842;28;20677;-80
2021/03/13 06:24:12;;;;;;;3.23;0.40;;;7.20;99.90;;;;;;5050465;28;20314;-81
2021/03/13 06:26:56;;;;;;;0.33;0.20;;;7.40;99.90;;;;;;5046325;28;20218;-81
2021/03/13 06:29:23;;;;;;;0.97;0.43;;;7.50;99.90;;;;;;5050120;28;20315;-79
2021/03/13 06:32:14;;;;;;;3.00;0.30;;;7.50;99.90;;;;;;5070094;28;20209;-79
2021/03/13 06:35:22;;;;;;;0.80;0.47;;;7.40;99.90;;;;;;5055617;28;20633;-76
2021/03/13 06:37:50;;;;;;;3.13;0.90;;;7.40;99.90;;;;;;5060921;28;20240;-79
2021/03/13 06:40:26;;;;;;;3.60;0.70;;;7.40;99.90;;;;;;5048782;28;20201;-78
2021/03/13 06:42:53;;;;;;;1.50;0.40;;;7.40;99.90;;;;;;5072290;28;20352;-78
2021/03/13 06:45:20;;;;;;;0.60;0.40;;;7.40;99.90;;;;;;5053250;28;20267;-78
2021/03/13 06:47:46;;;;;;;1.20;0.70;;;7.40;99.90;;;;;;5066753;28;20221;-78
2021/03/13 06:50:24;;;;;;;0.60;0.40;;;7.40;99.90;;;;;;5048086;28;20207;-78
2021/03/13 06:52:53;;;;;;;2.93;0.60;;;7.40;99.90;;;;;;5053659;28;20202;-77
2021/03/13 06:55:21;;;;;;;4.33;0.70;;;7.30;99.90;;;;;;5056386;28;20293;-76
2021/03/13 06:57:48;;;;;;;1.30;0.57;;;7.30;99.90;;;;;;5063890;28;20252;-77
2021/03/13 07:00:36;;;;;;;5.63;1.00;;;7.30;99.90;;;;;;5041687;28;20201;-77
2021/03/13 07:03:20;;;;;;;3.70;0.97;;;7.30;99.90;;;;;;5060160;28;20207;-77
2021/03/13 07:05:46;;;;;;;1.67;0.53;;;7.30;99.90;;;;;;5064853;28;20240;-77
2021/03/13 07:08:29;;;;;;;3.63;1.30;;;7.20;99.90;;;;;;5063997;28;20194;-76
2021/03/13 07:11:10;;;;;;;8.40;2.00;;;7.20;99.90;;;;;;5060815;28;20209;-75
2021/03/13 07:13:53;;;;;;;7.07;1.33;;;7.20;99.90;;;;;;5064158;28;20200;-77
2021/03/13 07:16:37;;;;;;;8.33;1.60;;;7.10;99.90;;;;;;5067320;28;20216;-77
2021/03/13 07:19:04;;;;;;;1.40;0.57;;;7.20;99.90;;;;;;5049558;28;20202;-75
2021/03/13 07:21:32;;;;;;;7.13;1.30;;;7.20;99.90;;;;;;5065716;28;20216;-76
2021/03/13 07:24:10;;;;;;;7.97;1.23;;;7.20;99.90;;;;;;5068431;28;20243;-77
2021/03/13 07:26:45;;;;;;;0.83;0.40;;;7.20;99.90;;;;;;5069103;28;20232;-76
2021/03/13 07:29:15;;;;;;;4.93;1.13;;;7.30;99.90;;;;;;5052796;28;20247;-77
2021/03/13 07:31:56;;;;;;;5.40;0.90;;;7.50;99.90;;;;;;5063433;28;20257;-77
2021/03/13 07:34:31;;;;;;;6.10;1.10;;;7.60;99.90;;;;;;5068937;28;20223;-78
2021/03/13 07:36:58;;;;;;;3.40;0.70;;;7.60;99.90;;;;;;5070272;28;20215;-79
2021/03/13 07:39:41;;;;;;;3.67;1.17;;;7.60;99.90;;;;;;5054425;28;20266;-78
2021/03/13 07:42:18;;;;;;;4.23;1.73;;;7.70;99.90;;;;;;5054011;28;20519;-79
2021/03/13 07:44:45;;;;;;;14.73;1.63;;;7.70;99.90;;;;;;5051807;28;20233;-78
2021/03/13 07:47:16;;;;;;;7.63;0.90;;;7.70;99.90;;;;;;5053980;28;20718;-78
2021/03/13 07:49:44;;;;;;;5.13;1.17;;;7.80;99.90;;;;;;5058187;28;20233;-78
2021/03/13 07:52:13;;;;;;;3.37;1.47;;;7.70;99.90;;;;;;5039034;28;20241;-78
2021/03/13 07:54:42;;;;;;;5.47;1.10;;;7.80;99.90;;;;;;5052064;28;20282;-79
2021/03/13 07:57:10;;;;;;;4.50;1.53;;;7.80;99.90;;;;;;5052542;28;20224;-77
2021/03/13 07:59:55;;;;;;;7.93;1.20;;;7.70;99.90;;;;;;5053164;28;21944;-79
2021/03/13 08:02:31;;;;;;;7.00;1.50;;;7.70;99.90;;;;;;5053894;28;20228;-76
2021/03/13 08:05:09;;;;;;;7.03;1.00;;;7.70;99.90;;;;;;5065666;28;20253;-77
2021/03/13 08:08:03;;;;;;;2.57;1.10;;;7.60;99.90;;;;;;5064807;28;20210;-77
2021/03/13 08:10:47;;;;;;;6.97;1.50;;;7.60;99.90;;;;;;5049449;28;20274;-77
2021/03/13 08:13:37;;;;;;;3.70;1.27;;;7.60;99.90;;;;;;5055741;28;20206;-77
2021/03/13 08:16:06;;;;;;;12.03;2.30;;;7.60;99.90;;;;;;5062567;28;20596;-77
2021/03/13 08:18:45;;;;;;;7.90;1.40;;;7.60;99.90;;;;;;5063816;28;20211;-78
2021/03/13 08:21:22;;;;;;;6.70;1.47;;;7.60;99.90;;;;;;5069962;28;20212;-79
2021/03/13 08:24:00;;;;;;;3.13;0.70;;;7.60;99.90;;;;;;5066652;28;20243;-78
2021/03/13 08:26:35;;;;;;;10.07;1.37;;;7.70;99.90;;;;;;5063304;28;20226;-76
2021/03/13 08:29:03;;;;;;;3.03;1.00;;;7.70;99.90;;;;;;5065805;28;20204;-76
2021/03/13 08:31:46;;;;;;;11.63;1.40;;;7.60;99.90;;;;;;5062084;28;20213;-75
2021/03/13 08:34:12;;;;;;;4.53;1.17;;;7.60;99.90;;;;;;5045404;28;20251;-78
2021/03/13 08:36:49;;;;;;;6.13;1.10;;;7.80;99.90;;;;;;5067773;28;20209;-81
2021/03/13 08:39:31;;;;;;;5.30;1.47;;;7.80;99.90;;;;;;5054877;28;20210;-79
2021/03/13 08:41:58;;;;;;;6.97;1.03;;;7.70;99.90;;;;;;5049894;28;20200;-75
2021/03/13 08:44:36;;;;;;;1.07;0.70;;;7.70;99.90;;;;;;5048628;28;20313;-76
2021/03/13 08:47:07;;;;;;;7.87;1.53;;;7.50;99.90;;;;;;5049409;28;20219;-77
2021/03/13 08:49:42;;;;;;;8.13;1.70;;;7.60;99.90;;;;;;5070225;28;20225;-78
2021/03/13 08:52:15;;;;;;;3.17;1.27;;;8.00;99.90;;;;;;5060384;28;20712;-82
2021/03/13 08:54:43;;;;;;;5.20;1.87;;;8.10;99.90;;;;;;5066926;28;20206;-80
2021/03/13 08:57:26;;;;;;;5.97;1.43;;;8.10;99.90;;;;;;5065243;28;20674;-82
2021/03/13 08:59:55;;;;;;;4.40;1.50;;;8.10;99.90;;;;;;5066320;28;20224;-78
2021/03/13 09:02:28;;;;;;;3.13;0.70;;;8.10;99.90;;;;;;5064537;28;20263;-78
2021/03/13 09:05:02;;;;;;;2.73;0.90;;;8.00;99.90;;;;;;5066935;28;20288;-78
2021/03/13 09:07:29;;;;;;;2.13;1.57;;;7.80;99.90;;;;;;5066450;28;20221;-80
2021/03/13 09:09:56;;;;;;;3.67;1.13;;;7.80;99.90;;;;;;5049314;28;20199;-80
2021/03/13 09:12:23;;;;;;;3.60;1.13;;;7.80;99.90;;;;;;5064736;28;20235;-80
2021/03/13 09:14:52;;;;;;;3.10;1.43;;;7.70;99.90;;;;;;5051523;28;20707;-79
2021/03/13 09:17:25;;;;;;;8.33;1.50;;;7.70;99.90;;;;;;5047404;28;20318;-79
2021/03/13 09:19:52;;;;;;;9.40;1.47;;;7.70;99.90;;;;;;5051619;28;20285;-76
2021/03/13 09:22:24;;;;;;;8.03;2.03;;;7.80;99.90;;;;;;5046927;28;20208;-77
2021/03/13 09:24:52;;;;;;;7.43;2.13;;;7.80;99.90;;;;;;5058953;28;20801;-78
2021/03/13 09:27:41;;;;;;;3.93;1.87;;;7.70;99.90;;;;;;5052481;28;20240;-79
2021/03/13 09:30:15;;;;;;;4.93;1.60;;;7.60;99.90;;;;;;5047434;28;20224;-77
2021/03/13 09:32:45;;;;;;;6.77;2.30;;;7.60;99.90;;;;;;5059902;28;20209;-77
2021/03/13 09:35:13;;;;;;;6.97;1.50;;;7.60;99.90;;;;;;5044769;28;20541;-76
2021/03/13 09:37:41;;;;;;;4.40;1.83;;;7.60;99.90;;;;;;5027638;28;21677;-76
2021/03/13 09:40:18;;;;;;;3.50;2.03;;;7.70;99.90;;;;;;5026635;28;20222;-79
2021/03/13 09:42:47;;;;;;;5.87;2.17;;;7.80;99.90;;;;;;5052108;28;20203;-77
2021/03/13 09:45:19;;;;;;;3.77;1.40;;;7.80;99.90;;;;;;5059872;28;20213;-78
2021/03/13 09:48:00;;;;;;;13.37;1.70;;;7.90;99.90;;;;;;5057242;28;20238;-76
2021/03/13 09:50:35;;;;;;;4.23;1.83;;;8.00;99.90;;;;;;5058406;28;20219;-76
2021/03/13 09:53:06;;;;;;;3.73;2.13;;;8.10;99.90;;;;;;5048745;28;20199;-77
2021/03/13 09:55:33;;;;;;;9.73;1.93;;;8.10;99.90;;;;;;5057626;28;20305;-77
2021/03/13 09:58:03;;;;;;;12.43;2.33;;;8.30;99.90;;;;;;5058365;28;20209;-76
2021/03/13 10:00:41;;;;;;;8.80;2.10;;;8.40;99.90;;;;;;5053964;28;20618;-75
2021/03/13 10:03:12;;;;;;;15.50;2.30;;;8.50;99.90;;;;;;5056908;28;20236;-75
2021/03/13 10:05:39;;;;;;;7.23;2.23;;;8.50;99.90;;;;;;5049050;28;20188;-75
2021/03/13 10:08:08;;;;;;;6.40;1.77;;;8.50;99.90;;;;;;5039010;28;20297;-75
2021/03/13 10:10:35;;;;;;;13.93;2.40;;;8.40;99.90;;;;;;5057685;28;20336;-77
2021/03/13 10:13:05;;;;;;;9.80;1.90;;;8.30;99.90;;;;;;5049876;28;20292;-73
2021/03/13 10:15:33;;;;;;;10.27;2.17;;;8.40;99.90;;;;;;5034509;28;20816;-74
2021/03/13 10:18:01;;;;;;;11.27;2.60;;;8.50;99.90;;;;;;5049680;28;20297;-73
2021/03/13 10:20:48;;;;;;;11.67;1.83;;;8.60;99.90;;;;;;5052153;28;20284;-74
2021/03/13 10:23:24;;;;;;;7.67;1.97;;;8.70;99.90;;;;;;5022207;28;20213;-72
2021/03/13 10:26:01;;;;;;;10.43;2.13;;;8.60;99.90;;;;;;5042675;28;21008;-75
2021/03/13 10:28:44;;;;;;;9.37;2.70;;;8.50;99.90;;;;;;5057551;28;20257;-73
2021/03/13 10:31:19;;;;;;;11.57;2.27;;;8.60;99.90;;;;;;5060115;28;20195;-76
2021/03/13 10:33:47;;;;;;;7.80;2.23;;;9.20;99.90;;;;;;5037514;28;20282;-74
2021/03/13 10:36:15;;;;;;;9.20;2.67;;;9.50;99.90;;;;;;5043520;28;20207;-74
2021/03/13 10:38:47;;;;;;;17.70;2.13;;;9.50;99.90;;;;;;5056348;28;20292;-75
2021/03/13 10:41:15;;;;;;;6.63;1.20;;;9.70;99.90;;;;;;5044979;28;20217;-74
2021/03/13 10:43:46;;;;;;;9.93;2.23;;;9.80;99.90;;;;;;5046222;28;20211;-74
2021/03/13 10:46:18;;;;;;;4.40;1.87;;;9.90;99.90;;;;;;5069110;28;20456;-73
2021/03/13 10:48:51;;;;;;;12.33;2.50;;;9.90;99.90;;;;;;5046759;28;20199;-74
2021/03/13 10:51:35;;;;;;;11.37;2.53;;;9.80;99.90;;;;;;5063411;28;20227;-74
2021/03/13 10:54:04;;;;;;;10.13;1.77;;;9.80;99.90;;;;;;5052610;28;20204;-74
2021/03/13 10:56:38;;;;;;;6.30;1.60;;;9.70;99.90;;;;;;5066187;28;20722;-75
2021/03/13 10:59:05;;;;;;;11.60;1.93;;;9.60;99.90;;;;;;5061970;28;20252;-74
2021/03/13 11:01:31;;;;;;;6.83;1.40;;;9.30;99.90;;;;;;5058614;22;20628;-94
2021/03/13 11:04:01;;;;;;;10.47;1.67;;;9.20;99.90;;;;;;5034667;28;20228;-93
2021/03/13 11:06:37;;;;;;;7.53;1.40;;;9.10;99.90;;;;;;5032344;28;20214;-95
2021/03/13 11:09:15;;;;;;;5.70;1.47;;;9.00;99.90;;;;;;5010838;28;20279;-92
2021/03/13 11:11:45;;;;;;;7.37;1.90;;;8.50;99.90;;;;;;5029638;28;20202;-91
2021/03/13 11:14:11;;;;;;;3.87;1.30;;;8.10;99.90;;;;;;5028504;28;20337;-92
2021/03/13 11:16:38;;;;;;;3.13;1.17;;;7.80;99.90;;;;;;5033721;28;20204;-94
2021/03/13 11:19:06;;;;;;;7.90;1.70;;;7.50;99.90;;;;;;5027588;28;20246;-92
2021/03/13 11:21:34;;;;;;;4.90;1.53;;;7.60;99.90;;;;;;5026609;28;20213;-93
2021/03/13 11:24:01;;;;;;;5.63;1.40;;;7.60;99.90;;;;;;5048221;28;20267;-92
2021/03/13 11:26:28;;;;;;;6.13;1.40;;;7.80;99.90;;;;;;5015371;28;20222;-93
2021/03/13 11:28:58;;;;;;;7.40;1.63;;;7.90;99.90;;;;;;5046787;28;20207;-94
2021/03/13 11:31:27;;;;;;;6.97;1.50;;;7.70;99.90;;;;;;5029572;28;20251;-94
2021/03/13 11:33:54;;;;;;;4.13;0.77;;;7.70;99.90;;;;;;5030699;28;20821;-95
2021/03/13 11:36:25;;;;;;;4.70;1.57;;;7.60;99.90;;;;;;5034137;28;20200;-96
2021/03/13 11:38:53;;;;;;;10.17;1.80;;;7.40;99.90;;;;;;5047400;28;20307;-94
2021/03/13 11:41:23;;;;;;;13.07;1.43;;;7.40;99.90;;;;;;5034832;28;20222;-94
2021/03/13 11:43:58;;;;;;;8.10;1.50;;;7.50;99.90;;;;;;5030330;28;20264;-94
2021/03/13 11:46:24;;;;;;;10.03;1.77;;;7.60;99.90;;;;;;5032004;28;20221;-93
2021/03/13 11:48:53;;;;;;;4.63;1.30;;;7.30;99.90;;;;;;5031122;28;20774;-96
2021/03/13 11:51:22;;;;;;;3.47;1.40;;;7.20;99.90;;;;;;5036779;28;20240;-92
2021/03/13 11:53:50;;;;;;;7.43;0.80;;;7.30;99.90;;;;;;5034106;28;20217;-91
2021/03/13 11:56:17;;;;;;;1.93;1.20;;;7.30;99.90;;;;;;5031975;28;20299;-91
2021/03/13 11:58:43;;;;;;;3.17;0.90;;;7.00;99.90;;;;;;5033217;28;20261;-94
2021/03/13 12:01:13;;;;;;;2.87;0.53;;;6.90;99.90;;;;;;5031797;28;20223;-94
2021/03/13 12:03:42;;;;;;;6.13;0.90;;;7.00;99.90;;;;;;5064053;28;20252;-94
2021/03/13 12:06:09;;;;;;;5.53;0.93;;;7.90;99.90;;;;;;5077750;22;20250;-80
2021/03/13 12:08:53;;;;;;;4.40;0.70;;;8.40;99.90;;;;;;5066588;28;20210;-81
2021/03/13 12:11:19;;;;;;;7.47;1.63;;;8.90;99.90;;;;;;5064462;28;20276;-81
2021/03/13 12:13:45;;;;;;;10.77;2.03;;;9.20;99.90;;;;;;5052527;28;20208;-81
2021/03/13 12:16:12;;;;;;;4.87;1.23;;;9.40;99.90;;;;;;5068807;28;20215;-81
2021/03/13 12:18:41;;;;;;;7.13;1.60;;;9.80;99.90;;;;;;5047958;28;20200;-78
2021/03/13 12:21:07;;;;;;;9.47;1.43;;;9.90;99.90;;;;;;5067049;28;20207;-81
2021/03/13 12:23:34;;;;;;;11.03;1.20;;;10.00;99.90;;;;;;5062664;28;20204;-80
2021/03/13 12:26:00;;;;;;;4.40;1.13;;;10.60;99.90;;;;;;5068006;28;20236;-81
2021/03/13 12:28:26;;;;;;;7.53;1.20;;;10.60;99.90;;;;;;5065269;28;20224;-81
2021/03/13 12:30:53;;;;;;;7.37;1.07;;;10.70;99.90;;;;;;5067180;28;20257;-81
2021/03/13 12:33:19;;;;;;;5.00;0.83;;;10.90;99.90;;;;;;5067785;28;20708;-81
2021/03/13 12:35:46;;;;;;;4.30;0.90;;;10.70;99.90;;;;;;5065045;28;20325;-80
2021/03/13 12:38:12;;;;;;;7.80;1.97;;;10.40;99.90;;;;;;5065781;28;20198;-81
2021/03/13 12:40:58;;;;;;;8.83;1.10;;;10.00;99.90;;;;;;5062678;28;20291;-81
2021/03/13 12:43:25;;;;;;;6.43;1.63;;;10.00;99.90;;;;;;5072147;28;20207;-80
2021/03/13 12:45:51;;;;;;;7.50;1.23;;;10.20;99.90;;;;;;5057866;28;20299;-82
2021/03/13 12:48:18;;;;;;;7.90;1.10;;;10.40;99.90;;;;;;5063897;28;20535;-80
2021/03/13 12:50:44;;;;;;;6.50;1.30;;;10.20;99.90;;;;;;5081894;28;20204;-82
2021/03/13 13:06:33;;;;;;;4.20;0.87;;;9.90;99.90;;;;;;4454642;28;20588;-80
2021/03/13 13:09:00;;;;;;;4.43;0.73;;;9.70;99.90;;;;;;4970885;28;20290;-80
2021/03/13 13:11:26;;;;;;;6.17;1.17;;;9.60;99.90;;;;;;4945215;28;20197;-79
2021/03/13 13:13:53;;;;;;;5.37;1.23;;;9.60;99.90;;;;;;4972983;28;20815;-77
2021/03/13 13:16:23;;;;;;;4.13;0.77;;;9.50;99.90;;;;;;4956895;28;20280;-78
2021/03/13 13:18:50;;;;;;;3.07;0.87;;;9.70;99.90;;;;;;4958438;28;20374;-75
2021/03/13 13:21:16;;;;;;;8.03;0.90;;;9.60;99.90;;;;;;4947049;28;20235;-77
2021/03/13 13:23:43;;;;;;;3.43;1.00;;;9.60;99.90;;;;;;4943355;28;20226;-75
2021/03/13 13:26:10;;;;;;;2.57;0.90;;;9.60;99.90;;;;;;4954264;28;20226;-75